• Join FlightAware (Why Join?)
  • Login
  • US Flag 
08:48AM EDT


 

Airport Tracker/Info


-or-


 

Live Flight TrackerFlight Track Log ✈ SWA2975 ✈ 10-Jul-2013 ✈ KDEN - KSLC

Flight Track Log - Related Links

Times and Time Zones

All times are in EDT time to prevent confusion due to time zone crossing. See the SWA2975 flight status page for this flight to view local times or setup timezone preferences in your user account.

Time Position Orientation Groundspeed Altitude Reporting Facility
EDT Latitude Longitude Course Direction KTS MPH feet Rate Location/Type
04:55PM 39.8640 -104.6820 255° West 17 20  Level FlightAware
04:55PM 39.8640 -104.6840 270° West 18 21 540 Level FlightAware
04:55PM 39.8630 -104.6840 180° South 17 20 540 Level FlightAware
04:56PM 39.8610 -104.6840 180° South 16 18 600 Level FlightAware
04:56PM 39.8590 -104.6840 180° South 15 17 600 Level FlightAware
04:57PM 39.8580 -104.6840 180° South 15 17 600 Level FlightAware
04:57PM 39.8560 -104.6840 180° South 15 17 660 Level FlightAware
04:58PM 39.8540 -104.6840 180° South 17 20 720 Level FlightAware
04:58PM 39.8510 -104.6840 180° South 23 26 720 Level FlightAware
04:59PM 39.8480 -104.6840 180° South 16 18 780 Level FlightAware
04:59PM 39.8440 -104.6840 180° South 31 36 840 Level FlightAware
05:02PM 39.8808 -104.9998 276° West  Level FlightAware Approximate
05:03PM 39.8913 -105.1359 276° West  Level FlightAware Approximate
05:04PM 39.9000 -105.2721 270° West  Level FlightAware Approximate
05:05PM 39.9138 -105.4076 278° West  Level FlightAware Approximate
05:05PM 39.8410 -104.7280 278° West 182 209 5,800  Level FlightAware
05:05PM 39.8440 -104.7440 284° West 184 212 6,600 1,620 Climbing FlightAware
05:06PM 39.8580 -104.7750 300° West 233 268 7,000 1,800 Climbing FlightAware
05:06PM 39.8740 -104.8120 299° West 246 283 8,300 2,880 Climbing FlightAware
05:07PM 39.8870 -104.8440 298° West 256 295 9,500 2,220 Climbing FlightAware
05:07PM 39.8960 -104.8660 298° West 278 320 9,800 360 Climbing FlightAware
05:07PM 39.9180 -104.9150 300° West 344 396 9,800 1,320 Level FlightAware
05:08PM 39.9380 -104.9990 287° West 367 422 11,400 3,000 Climbing FlightAware
05:09PM 39.9430 -105.0910 274° West 362 417 13,900 3,480 Climbing FlightAware
05:10PM 39.9480 -105.1810 274° West 357 411 16,300 3,300 Climbing FlightAware
05:10PM 39.9520 -105.2600 274° West 356 410 18,200 2,460 Climbing FlightAware
05:11PM 39.9600 -105.4070 274° West 376 433 20,700 2,220 Climbing FlightAware
05:12PM 39.9650 -105.5050 274° West 384 442 22,300 2,160 Climbing FlightAware
05:13PM 39.9700 -105.5970 274° West 389 448 23,700 1,920 Climbing FlightAware
05:13PM 39.9760 -105.7060 274° West 398 458 25,100 1,800 Climbing FlightAware
05:14PM 39.9810 -105.8040 274° West 405 466 26,300 1,500 Climbing FlightAware
05:16PM 39.9950 -106.0990 274° West 432 497 29,100 1,560 Climbing FlightAware
05:17PM 40.0000 -106.2170 273° West 429 494 30,600 1,740 Climbing FlightAware
05:18PM 40.0060 -106.3320 274° West 432 497 31,700 1,740 Climbing FlightAware
05:18PM 40.0100 -106.4310 273° West 426 490 33,000 2,040 Climbing FlightAware
05:19PM 40.0150 -106.5460 273° West 413 475 34,600 1,860 Climbing FlightAware
05:20PM 40.0200 -106.6450 274° West 405 466 35,700 1,320 Climbing FlightAware
05:20PM 40.0240 -106.7480 273° West 405 466 36,500 1,020 Climbing FlightAware
05:21PM 40.0270 -106.8220 273° West 408 470 37,000 1,020 Climbing FlightAware
05:22PM 40.0320 -106.9350 273° West 407 468 37,800 660 Climbing FlightAware
05:22PM 40.0360 -107.0300 273° West 408 470 38,000 120 Climbing FlightAware
05:23PM 40.0390 -107.1190 273° West 404 465 38,000  Level FlightAware
05:23PM 40.0420 -107.2110 272° West 400 460 38,000  Level FlightAware
05:24PM 40.0460 -107.3120 273° West 394 453 38,000  Level FlightAware
05:25PM 40.0500 -107.4140 273° West 389 448 38,000  Level FlightAware
05:26PM 40.0540 -107.5230 273° West 383 441 38,000  Level FlightAware
05:26PM 40.0580 -107.6230 273° West 376 433 38,000  Level FlightAware
05:27PM 40.0610 -107.7130 273° West 371 427 38,000  Level FlightAware
05:28PM 40.0630 -107.7920 272° West 372 428 38,000  Level FlightAware
05:28PM 40.0660 -107.8840 272° West 378 435 38,000  Level FlightAware
05:29PM 40.0700 -107.9860 273° West 395 455 38,000  Level FlightAware
05:30PM 40.0740 -108.0720 274° West 407 468 38,000  Level FlightAware
05:30PM 40.0790 -108.1730 274° West 416 479 38,000  Level FlightAware
05:31PM 40.0830 -108.2730 273° West 420 483 38,000  Level FlightAware
05:32PM 40.0880 -108.3780 274° West 420 483 38,000  Level FlightAware
05:32PM 40.0920 -108.4900 273° West 418 481 38,000  Level FlightAware
05:33PM 40.0970 -108.6020 273° West 415 478 38,000  Level FlightAware
05:34PM 40.1010 -108.7000 273° West 412 474 38,000  Level FlightAware
05:34PM 40.1050 -108.8010 273° West 411 473 38,000  Level FlightAware
05:35PM 40.1090 -108.8930 273° West 411 473 38,000  Level FlightAware
05:36PM 40.1120 -108.9930 272° West 412 474 38,000  Level FlightAware
05:37PM 40.1160 -109.1060 273° West 412 474 38,000  Level FlightAware
05:37PM 40.1190 -109.1870 273° West 413 475 38,000 -180 Level FlightAware
05:38PM 40.1230 -109.2960 273° West 409 471 37,800 -660 Descending FlightAware
05:38PM 40.1260 -109.3940 272° West 402 463 37,100 -1,020 Descending FlightAware
05:39PM 40.1300 -109.4930 273° West 411 473 36,500 -900 Descending FlightAware
05:40PM 40.1330 -109.6030 272° West 419 482 35,900 -960 Descending FlightAware
05:41PM 40.1370 -109.7100 273° West 428 493 35,200 -960 Descending FlightAware
05:41PM 40.1400 -109.8110 272° West 434 499 34,600 -960 Descending FlightAware
05:42PM 40.1430 -109.9130 272° West 432 497 34,000 -960 Descending FlightAware
05:43PM 40.1460 -110.0150 272° West 425 489 33,400 -1,020 Descending FlightAware
05:44PM 40.1490 -110.1950 271° West 419 482 32,100 -1,020 Descending FlightAware
05:44PM 40.1480 -110.2890 269° West 423 487 31,500 -900 Descending FlightAware
05:46PM 40.1460 -110.4960 269° West 430 495 30,300 -1,380 Descending FlightAware
05:47PM 40.1440 -110.6540 269° West 405 466 28,400 -1,440 Descending FlightAware
05:47PM 40.1430 -110.7230 269° West 399 459 27,900 -2,100 Descending FlightAware
05:48PM 40.1420 -110.8510 269° West 380 437 25,500 -1,860 Descending FlightAware
05:49PM 40.1400 -110.9400 268° West 378 435 25,300 -180 Descending FlightAware
05:50PM 40.1370 -111.0330 268° West 378 435 25,300  Level FlightAware
05:50PM 40.1350 -111.1030 268° West 378 435 25,300  Level FlightAware
05:51PM 40.1320 -111.2220 268° West 378 435 25,300  Level FlightAware
05:52PM 40.1300 -111.2920 268° West 378 435 25,300 -2,820 Level FlightAware
05:55PM 40.1660 -111.6430 278° West 331 381 15,900 -2,760 Descending FlightAware
05:55PM 40.2030 -111.7140 304° West 333 383 15,900 -420 Level FlightAware
05:56PM 40.2580 -111.7880 314° West 322 371 15,300 -1,020 Descending FlightAware
05:57PM 40.3050 -111.8460 317° Northwest 313 360 14,300 -900 Descending FlightAware
05:58PM 40.3510 -111.8920 323° Northwest 280 322 14,000 -720 Descending FlightAware
05:58PM 40.3980 -111.9290 329° Northwest 265 305 13,300 -1,440 Descending FlightAware
05:59PM 40.4420 -111.9350 354° North 266 306 12,200 -1,260 Descending FlightAware
06:00PM 40.5070 -111.9420 355° North 242 278 11,000 -1,260 Descending FlightAware
06:01PM 40.5630 -111.9490 355° North 233 268 9,900 -1,620 Descending FlightAware
06:01PM 40.5890 -111.9520 355° North 219 252 9,400 -1,200 Descending FlightAware
06:02PM 40.6120 -111.9540 356° North 207 238 9,000 -1,380 Descending FlightAware
06:02PM 40.6440 -111.9580 355° North 196 226 8,100 -1,680 Descending FlightAware
06:03PM 40.6690 -111.9610 355° North 192 221 7,300 -1,860 Descending FlightAware
06:03PM 40.6920 -111.9640 354° North 181 208 6,400 -2,040 Descending FlightAware
06:04PM 40.7160 -111.9660 356° North 181 208 5,400 -1,680 Descending FlightAware
06:04PM 40.7370 -111.9690 354° North 161 185 4,900 -1,020 Descending FlightAware
06:05PM 40.7590 -111.9710 356° North 159 183 4,500 -840 Descending FlightAware
06:05PM 40.7690 -111.9720 356° North 152 175 4,300 -780 Descending FlightAware
06:13PM 40.7833 -111.9667 North  Level FlightAware Approximate